createdAt,value
2019-01-25T00:01:23.314Z,-0.90
2019-01-25T00:03:50.988Z,-0.90
2019-01-25T00:06:22.932Z,-0.90
2019-01-25T00:08:50.554Z,-0.80
2019-01-25T00:11:18.256Z,-0.80
2019-01-25T00:13:46.030Z,-0.70
2019-01-25T00:16:13.650Z,-0.70
2019-01-25T00:18:41.265Z,-0.90
2019-01-25T00:21:08.980Z,-1.00
2019-01-25T00:23:36.640Z,-1.00
2019-01-25T00:26:04.614Z,-1.10
2019-01-25T00:28:32.288Z,-1.00
2019-01-25T00:31:00.327Z,-0.90
2019-01-25T00:33:27.943Z,-0.80
2019-01-25T00:35:55.737Z,-0.70
2019-01-25T00:38:23.524Z,-0.70
2019-01-25T00:40:51.220Z,-0.80
2019-01-25T00:43:18.851Z,-0.80
2019-01-25T00:45:46.441Z,-0.90
2019-01-25T00:48:14.044Z,-0.90
2019-01-25T00:50:41.749Z,-0.90
2019-01-25T00:53:09.344Z,-0.90
2019-01-25T00:55:36.995Z,-0.90
2019-01-25T00:58:05.466Z,-0.90
2019-01-25T01:00:33.243Z,-0.80
2019-01-25T01:03:00.949Z,-0.80
2019-01-25T01:05:28.555Z,-0.80
2019-01-25T01:07:56.127Z,-0.80
2019-01-25T01:10:23.745Z,-0.80
2019-01-25T01:12:52.077Z,-0.80
2019-01-25T01:15:19.829Z,-0.80
2019-01-25T01:17:47.831Z,-0.90
2019-01-25T01:20:16.600Z,-0.90
2019-01-25T01:22:45.065Z,-0.90
2019-01-25T01:25:13.644Z,-0.80
2019-01-25T01:27:41.249Z,-0.80
2019-01-25T01:30:15.217Z,-0.80
2019-01-25T01:32:42.878Z,-0.80
2019-01-25T01:35:10.665Z,-0.80
2019-01-25T01:37:38.276Z,-0.80
2019-01-25T01:40:10.488Z,-0.80
2019-01-25T01:42:38.194Z,-0.90
2019-01-25T01:45:06.138Z,-0.80
2019-01-25T01:47:33.959Z,-0.80
2019-01-25T01:50:01.610Z,-0.70
2019-01-25T01:52:29.233Z,-0.70
2019-01-25T01:54:56.809Z,-0.70
2019-01-25T01:57:24.505Z,-0.80
2019-01-25T01:59:52.097Z,-0.80
2019-01-25T02:02:19.709Z,-0.80
2019-01-25T02:04:47.339Z,-0.80
2019-01-25T02:07:14.930Z,-0.80
2019-01-25T02:09:42.509Z,-0.70
2019-01-25T02:12:10.135Z,-0.70
2019-01-25T02:14:37.735Z,-0.60
2019-01-25T02:17:05.364Z,-0.50
2019-01-25T02:19:33.027Z,-0.50
2019-01-25T02:22:00.701Z,-0.50
2019-01-25T02:24:28.315Z,-0.50
2019-01-25T02:26:56.602Z,-0.50
2019-01-25T02:29:24.545Z,-0.60
2019-01-25T02:31:52.215Z,-0.60
2019-01-25T02:34:19.826Z,-0.60
2019-01-25T02:36:47.461Z,-0.60
2019-01-25T02:39:15.117Z,-0.60
2019-01-25T02:41:42.768Z,-0.50
2019-01-25T02:44:10.411Z,-0.50
2019-01-25T02:46:38.052Z,-0.50
2019-01-25T02:49:05.698Z,-0.50
2019-01-25T02:51:33.362Z,-0.50
2019-01-25T02:54:00.945Z,-0.40
2019-01-25T02:56:28.635Z,-0.40
2019-01-25T02:58:56.344Z,-0.40
2019-01-25T03:01:23.975Z,-0.40
2019-01-25T03:03:51.676Z,-0.40
2019-01-25T03:06:19.330Z,-0.30
2019-01-25T03:08:46.975Z,-0.30
2019-01-25T03:11:14.597Z,-0.30
2019-01-25T03:13:42.206Z,-0.20
2019-01-25T03:16:09.810Z,-0.20
2019-01-25T03:18:37.469Z,-0.20
2019-01-25T03:21:05.172Z,-0.20
2019-01-25T03:23:32.752Z,-0.10
2019-01-25T03:26:00.397Z,-0.10
2019-01-25T03:28:28.036Z,-0.10
2019-01-25T03:30:55.647Z,-0.10
2019-01-25T03:33:23.322Z,0.00
2019-01-25T03:35:50.961Z,-0.10
2019-01-25T03:38:18.601Z,-0.10
2019-01-25T03:40:46.212Z,-0.10
2019-01-25T03:43:13.860Z,-0.10
2019-01-25T03:45:41.436Z,-0.10
2019-01-25T03:48:15.247Z,-0.10
2019-01-25T03:50:42.835Z,-0.10
2019-01-25T03:53:10.540Z,-0.10
2019-01-25T03:55:38.189Z,-0.10
2019-01-25T03:58:05.788Z,-0.20
2019-01-25T04:00:33.393Z,-0.20
2019-01-25T04:03:01.056Z,-0.30
2019-01-25T04:05:28.668Z,-0.30
2019-01-25T04:07:56.337Z,-0.40
2019-01-25T04:10:25.881Z,-0.40
2019-01-25T04:12:53.482Z,-0.40
2019-01-25T04:15:23.794Z,-0.40
2019-01-25T04:17:51.373Z,-0.50
2019-01-25T04:20:19.349Z,-0.50
2019-01-25T04:22:47.116Z,-0.40
2019-01-25T04:25:17.467Z,-0.50
2019-01-25T04:27:45.124Z,-0.50
2019-01-25T04:30:15.611Z,-0.50
2019-01-25T04:32:43.903Z,-0.50
2019-01-25T04:35:11.701Z,-0.50
2019-01-25T04:37:39.425Z,-0.50
2019-01-25T04:40:09.523Z,-0.60
2019-01-25T04:42:37.131Z,-0.60
2019-01-25T04:45:05.814Z,-0.60
2019-01-25T04:47:33.520Z,-0.60
2019-01-25T04:50:01.225Z,-0.60
2019-01-25T04:52:28.867Z,-0.60
2019-01-25T04:54:56.517Z,-0.60
2019-01-25T04:57:24.926Z,-0.50
2019-01-25T04:59:52.525Z,-0.50
2019-01-25T05:02:20.195Z,-0.40
2019-01-25T05:04:47.861Z,-0.40
2019-01-25T05:07:15.478Z,-0.30
2019-01-25T05:09:43.101Z,-0.30
2019-01-25T05:12:10.735Z,-0.30
2019-01-25T05:14:38.416Z,-0.30
2019-01-25T05:17:10.433Z,-0.30
2019-01-25T05:19:39.069Z,-0.20
2019-01-25T05:22:06.930Z,-0.20
2019-01-25T05:24:35.139Z,-0.20
2019-01-25T05:27:02.789Z,-0.20
2019-01-25T05:29:48.059Z,-0.20
2019-01-25T05:32:15.690Z,-0.20
2019-01-25T05:34:43.324Z,-0.20
2019-01-25T05:37:12.522Z,-0.10
2019-01-25T05:39:40.151Z,-0.20
2019-01-25T05:42:07.947Z,-0.10
2019-01-25T05:44:35.562Z,-0.10
2019-01-25T05:47:08.311Z,-0.10
2019-01-25T05:49:35.957Z,0.00
2019-01-25T05:52:04.489Z,-0.10
2019-01-25T05:54:32.059Z,-0.10
2019-01-25T05:56:59.608Z,0.00
2019-01-25T05:59:27.182Z,0.00
2019-01-25T06:01:54.799Z,0.00
2019-01-25T06:04:22.392Z,0.00
2019-01-25T06:06:53.655Z,0.00
2019-01-25T06:09:21.416Z,0.00
2019-01-25T06:11:48.994Z,0.00
2019-01-25T06:14:16.641Z,0.00
2019-01-25T06:16:44.371Z,0.00
2019-01-25T06:19:12.024Z,0.00
2019-01-25T06:21:39.886Z,0.10
2019-01-25T06:24:07.502Z,0.00
2019-01-25T06:26:43.910Z,0.00
2019-01-25T06:29:11.519Z,0.10
2019-01-25T06:31:39.155Z,0.10
2019-01-25T06:34:06.778Z,0.10
2019-01-25T06:36:42.869Z,0.10
2019-01-25T06:39:10.614Z,0.20
2019-01-25T06:41:43.979Z,0.10
2019-01-25T06:44:09.887Z,0.10
2019-01-25T06:46:39.555Z,0.20
2019-01-25T06:49:07.141Z,0.20
2019-01-25T06:51:34.716Z,0.20
2019-01-25T06:54:02.562Z,0.20
2019-01-25T06:56:31.280Z,0.20
2019-01-25T06:59:10.254Z,0.20
2019-01-25T07:01:56.629Z,0.20
2019-01-25T07:04:24.277Z,0.20
2019-01-25T07:06:51.838Z,0.30
2019-01-25T07:09:19.425Z,0.30
2019-01-25T07:11:51.631Z,0.30
2019-01-25T07:14:18.794Z,0.30
2019-01-25T07:16:47.402Z,0.30
2019-01-25T07:19:15.114Z,0.30
2019-01-25T07:21:42.735Z,0.40
2019-01-25T07:24:10.318Z,0.30
2019-01-25T07:26:38.366Z,0.30
2019-01-25T07:29:06.037Z,0.40
2019-01-25T07:31:33.698Z,0.40
2019-01-25T07:34:01.298Z,0.40
2019-01-25T07:36:30.226Z,0.40
2019-01-25T07:38:57.857Z,0.50
2019-01-25T07:41:25.426Z,0.50
2019-01-25T07:43:53.273Z,0.50
2019-01-25T07:46:20.781Z,0.50
2019-01-25T07:48:48.355Z,0.60
2019-01-25T07:51:16.921Z,0.60
2019-01-25T07:53:44.525Z,0.60
2019-01-25T07:56:12.136Z,0.70
2019-01-25T07:58:41.956Z,0.80
2019-01-25T08:01:09.572Z,0.80
2019-01-25T08:03:37.251Z,0.90
2019-01-25T08:06:04.852Z,0.90
2019-01-25T08:08:34.396Z,1.00
2019-01-25T08:11:02.039Z,1.00
2019-01-25T08:13:30.152Z,1.10
2019-01-25T08:15:57.816Z,1.10
2019-01-25T08:18:25.395Z,1.00
2019-01-25T08:20:52.965Z,1.00
2019-01-25T08:23:20.626Z,1.00
2019-01-25T08:25:48.206Z,1.10
2019-01-25T08:28:15.764Z,1.10
2019-01-25T08:30:43.314Z,1.10
2019-01-25T08:33:13.141Z,1.20
2019-01-25T08:35:40.821Z,1.20
2019-01-25T08:38:18.121Z,1.20
2019-01-25T08:40:49.213Z,1.20
2019-01-25T08:43:16.771Z,1.30
2019-01-25T08:45:44.543Z,1.30
2019-01-25T08:48:14.293Z,1.30
2019-01-25T08:50:41.838Z,1.40
2019-01-25T08:53:09.436Z,1.40
2019-01-25T08:55:37.018Z,1.40
2019-01-25T08:58:05.521Z,1.50
2019-01-25T09:00:33.235Z,1.50
2019-01-25T09:03:00.862Z,1.50
2019-01-25T09:05:28.500Z,1.40
2019-01-25T09:07:56.147Z,1.50
2019-01-25T09:10:23.774Z,1.50
2019-01-25T09:12:51.385Z,1.50
2019-01-25T09:15:22.799Z,1.50
2019-01-25T09:17:50.457Z,1.60
2019-01-25T09:20:19.332Z,1.60
2019-01-25T09:22:47.239Z,1.60
2019-01-25T09:25:15.113Z,1.60
2019-01-25T09:27:42.683Z,1.60
2019-01-25T09:30:18.156Z,1.70
2019-01-25T09:32:45.741Z,1.70
2019-01-25T09:35:13.656Z,1.70
2019-01-25T09:37:41.295Z,1.80
2019-01-25T09:40:11.998Z,1.80
2019-01-25T09:42:39.617Z,1.80
2019-01-25T09:45:08.747Z,1.80
2019-01-25T09:47:36.348Z,1.80
2019-01-25T09:50:05.484Z,1.80
2019-01-25T09:52:33.172Z,1.80
2019-01-25T09:55:00.764Z,1.80
2019-01-25T09:57:28.471Z,1.90
2019-01-25T09:59:56.108Z,1.90
2019-01-25T10:02:23.703Z,1.90
2019-01-25T10:04:51.374Z,1.90
2019-01-25T10:07:19.016Z,1.90
2019-01-25T10:09:46.614Z,2.00
2019-01-25T10:12:14.198Z,1.90
2019-01-25T10:14:41.871Z,1.90
2019-01-25T10:17:09.829Z,1.90
2019-01-25T10:19:37.470Z,2.00
2019-01-25T10:22:05.035Z,2.00
2019-01-25T10:24:32.623Z,2.10
2019-01-25T10:27:00.186Z,2.10
2019-01-25T10:29:27.870Z,2.10
2019-01-25T10:31:55.471Z,2.10
2019-01-25T10:34:23.133Z,2.10
2019-01-25T10:36:50.836Z,2.20
2019-01-25T10:39:18.500Z,2.20
2019-01-25T10:41:46.111Z,2.20
2019-01-25T10:44:13.728Z,2.30
2019-01-25T10:46:41.322Z,2.30
2019-01-25T10:49:08.935Z,2.30
2019-01-25T10:51:36.558Z,2.30
2019-01-25T10:54:04.702Z,2.40
2019-01-25T10:56:32.813Z,2.40
2019-01-25T10:59:00.430Z,2.50
2019-01-25T11:01:27.962Z,2.50
2019-01-25T11:03:55.535Z,2.40
2019-01-25T11:06:23.138Z,2.40
2019-01-25T11:08:52.992Z,2.40
2019-01-25T11:11:20.623Z,2.40
2019-01-25T11:13:48.267Z,2.40
2019-01-25T11:16:15.897Z,2.50
2019-01-25T11:18:43.624Z,2.60
2019-01-25T11:21:11.357Z,2.70
2019-01-25T11:23:38.946Z,2.80
2019-01-25T11:26:06.489Z,2.80
2019-01-25T11:28:34.108Z,2.90
2019-01-25T11:31:01.801Z,2.90
2019-01-25T11:33:29.430Z,2.90
2019-01-25T11:35:56.998Z,2.90
2019-01-25T11:38:24.531Z,2.90
2019-01-25T11:40:52.096Z,2.90
2019-01-25T11:43:19.707Z,3.00
2019-01-25T11:45:47.295Z,3.00
2019-01-25T11:48:18.515Z,3.10
2019-01-25T11:50:46.117Z,3.10
2019-01-25T11:53:13.751Z,3.10
2019-01-25T11:55:41.336Z,3.10
2019-01-25T11:58:09.026Z,3.10
2019-01-25T12:00:37.739Z,3.10
2019-01-25T12:03:05.317Z,3.20
2019-01-25T12:05:32.933Z,3.10
2019-01-25T12:08:00.487Z,3.10
2019-01-25T12:10:29.145Z,3.10
2019-01-25T12:12:56.740Z,3.10
2019-01-25T12:15:24.465Z,3.10
2019-01-25T12:17:52.139Z,3.00
2019-01-25T12:20:24.630Z,3.00
2019-01-25T12:22:52.260Z,3.00
2019-01-25T12:25:19.888Z,3.00
2019-01-25T12:27:47.441Z,3.00
2019-01-25T12:30:26.957Z,3.00
2019-01-25T12:32:54.544Z,3.10
2019-01-25T12:35:22.297Z,3.00
2019-01-25T12:37:49.976Z,3.00
2019-01-25T12:40:17.583Z,3.00
2019-01-25T12:42:45.238Z,3.00
2019-01-25T12:45:16.178Z,2.90
2019-01-25T12:47:43.769Z,3.00
2019-01-25T12:50:14.616Z,3.00
2019-01-25T12:52:42.236Z,3.00
2019-01-25T12:55:10.374Z,3.00
2019-01-25T12:57:38.182Z,3.00
2019-01-25T13:00:08.694Z,3.00
2019-01-25T13:02:36.266Z,2.90
2019-01-25T13:05:06.926Z,2.90
2019-01-25T13:07:34.476Z,3.00
2019-01-25T13:10:02.040Z,3.00
2019-01-25T13:12:29.720Z,2.90
2019-01-25T13:14:59.297Z,2.90
2019-01-25T13:17:26.927Z,2.90
2019-01-25T13:19:54.585Z,2.80
2019-01-25T13:22:22.146Z,2.80
2019-01-25T13:24:49.719Z,2.80
2019-01-25T13:27:17.343Z,2.80
2019-01-25T13:29:44.989Z,2.70
2019-01-25T13:32:14.642Z,2.70
2019-01-25T13:34:42.002Z,2.80
2019-01-25T13:37:09.624Z,2.80
2019-01-25T13:39:37.259Z,2.80
2019-01-25T13:42:04.912Z,2.80
2019-01-25T13:44:32.544Z,2.80
2019-01-25T13:47:07.773Z,2.80
2019-01-25T13:49:35.406Z,2.80
2019-01-25T13:52:03.012Z,2.90
2019-01-25T13:54:30.564Z,2.90
2019-01-25T13:57:00.508Z,2.90
2019-01-25T13:59:28.074Z,2.90
2019-01-25T14:01:56.238Z,2.90
2019-01-25T14:04:23.891Z,2.90
2019-01-25T14:06:51.866Z,2.90
2019-01-25T14:09:19.449Z,2.90
2019-01-25T14:11:47.060Z,2.80
2019-01-25T14:14:14.665Z,2.80
2019-01-25T14:16:42.313Z,2.70
2019-01-25T14:19:09.947Z,2.70
2019-01-25T14:21:37.578Z,2.70
2019-01-25T14:24:05.157Z,2.70
2019-01-25T14:26:36.450Z,2.70
2019-01-25T14:29:04.445Z,2.70
2019-01-25T14:31:34.851Z,2.70
2019-01-25T14:34:02.556Z,2.70
2019-01-25T14:36:30.147Z,2.60
2019-01-25T14:38:57.857Z,2.60
2019-01-25T14:41:25.597Z,2.60
2019-01-25T14:43:54.689Z,2.60
2019-01-25T14:46:22.594Z,2.60
2019-01-25T14:48:50.207Z,2.70
2019-01-25T14:51:17.825Z,2.70
2019-01-25T14:53:45.496Z,2.70
2019-01-25T14:56:13.107Z,2.70
2019-01-25T14:58:40.730Z,2.70
2019-01-25T15:01:08.341Z,2.70
2019-01-25T15:03:36.005Z,2.70
2019-01-25T15:06:03.740Z,2.70
2019-01-25T15:08:31.501Z,2.70
2019-01-25T15:10:59.183Z,2.70
2019-01-25T15:13:26.743Z,2.70
2019-01-25T15:15:54.393Z,2.70
2019-01-25T15:18:22.004Z,2.70
2019-01-25T15:20:49.682Z,2.80
2019-01-25T15:23:17.311Z,2.80
2019-01-25T15:25:44.920Z,2.80
2019-01-25T15:28:12.546Z,2.90
2019-01-25T15:30:40.285Z,2.90
2019-01-25T15:33:08.048Z,2.90
2019-01-25T15:35:35.717Z,2.90
2019-01-25T15:38:03.380Z,2.90
2019-01-25T15:40:31.401Z,2.90
2019-01-25T15:42:59.061Z,3.00
2019-01-25T15:45:26.604Z,2.90
2019-01-25T15:47:54.299Z,3.00
2019-01-25T15:50:31.937Z,2.90
2019-01-25T15:52:59.635Z,3.00
2019-01-25T15:55:27.634Z,2.90
2019-01-25T15:57:55.608Z,2.90
2019-01-25T16:00:24.504Z,2.90
2019-01-25T16:02:52.376Z,2.90
2019-01-25T16:05:20.870Z,2.90
2019-01-25T16:07:56.764Z,2.90
2019-01-25T16:10:24.443Z,2.90
2019-01-25T16:12:52.461Z,2.90
2019-01-25T16:15:24.948Z,2.90
2019-01-25T16:17:53.272Z,2.90
2019-01-25T16:20:20.828Z,2.90
2019-01-25T16:22:48.634Z,2.90
2019-01-25T16:25:18.796Z,2.90
2019-01-25T16:27:46.646Z,2.90
2019-01-25T16:30:20.020Z,2.90
2019-01-25T16:32:47.666Z,2.90
2019-01-25T16:35:15.814Z,2.90
2019-01-25T16:37:43.394Z,2.90
2019-01-25T16:40:13.387Z,2.90
2019-01-25T16:42:41.060Z,2.90
2019-01-25T16:45:12.842Z,2.90
2019-01-25T16:47:40.478Z,3.00
2019-01-25T16:50:08.890Z,3.00
2019-01-25T16:52:37.964Z,3.00
2019-01-25T16:55:07.364Z,3.00
2019-01-25T16:57:35.084Z,3.00
2019-01-25T17:00:04.298Z,3.00
2019-01-25T17:02:31.972Z,3.00
2019-01-25T17:04:59.656Z,3.00
2019-01-25T17:07:27.336Z,3.00
2019-01-25T17:09:54.945Z,3.00
2019-01-25T17:12:22.588Z,3.00
2019-01-25T17:14:50.252Z,3.00
2019-01-25T17:17:20.823Z,3.10
2019-01-25T17:19:48.439Z,3.10
2019-01-25T17:22:16.048Z,3.10
2019-01-25T17:24:43.711Z,3.10
2019-01-25T17:27:11.351Z,3.10
2019-01-25T17:29:39.029Z,3.10
2019-01-25T17:32:06.625Z,3.10
2019-01-25T17:34:34.213Z,3.10
2019-01-25T17:37:01.920Z,3.10
2019-01-25T17:39:29.641Z,3.10
2019-01-25T17:41:57.318Z,3.10
2019-01-25T17:44:24.993Z,3.10
2019-01-25T17:46:52.599Z,3.10
2019-01-25T17:49:20.236Z,3.10
2019-01-25T17:51:47.859Z,3.10
2019-01-25T17:54:15.625Z,3.10
2019-01-25T17:56:43.327Z,3.10
2019-01-25T17:59:11.083Z,3.10
2019-01-25T18:01:39.343Z,3.10
2019-01-25T18:04:07.083Z,3.10
2019-01-25T18:06:34.660Z,3.10
2019-01-25T18:09:05.798Z,3.10
2019-01-25T18:11:33.444Z,3.10
2019-01-25T18:14:31.356Z,3.10
2019-01-25T18:16:58.988Z,3.20
2019-01-25T18:19:26.600Z,3.20
2019-01-25T18:21:54.280Z,3.10
2019-01-25T18:24:22.929Z,3.20
2019-01-25T18:26:50.586Z,3.20
2019-01-25T18:29:29.220Z,3.20
2019-01-25T18:31:56.871Z,3.20
2019-01-25T18:34:24.516Z,3.20
2019-01-25T18:36:52.143Z,3.20
2019-01-25T18:39:19.783Z,3.20
2019-01-25T18:41:47.528Z,3.20
2019-01-25T18:44:15.165Z,3.20
2019-01-25T18:46:50.177Z,3.20
2019-01-25T18:49:18.333Z,3.30
2019-01-25T18:51:45.948Z,3.30
2019-01-25T18:54:13.622Z,3.30
2019-01-25T18:56:44.272Z,3.30
2019-01-25T18:59:11.850Z,3.30
2019-01-25T19:01:40.767Z,3.30
2019-01-25T19:04:08.381Z,3.30
2019-01-25T19:06:36.036Z,3.30
2019-01-25T19:09:06.668Z,3.30
2019-01-25T19:11:35.377Z,3.40
2019-01-25T19:14:03.536Z,3.40
2019-01-25T19:16:31.252Z,3.40
2019-01-25T19:18:58.968Z,3.40
2019-01-25T19:21:26.638Z,3.40
2019-01-25T19:23:54.275Z,3.50
2019-01-25T19:26:29.374Z,3.50
2019-01-25T19:28:57.441Z,3.50
2019-01-25T19:31:32.411Z,3.50
2019-01-25T19:34:01.788Z,3.60
2019-01-25T19:36:29.406Z,3.50
2019-01-25T19:38:57.211Z,3.60
2019-01-25T19:41:26.147Z,3.60
2019-01-25T19:43:53.782Z,3.60
2019-01-25T19:46:21.386Z,3.60
2019-01-25T19:48:50.623Z,3.60
2019-01-25T19:51:18.372Z,3.60
2019-01-25T19:53:49.964Z,3.60
2019-01-25T19:56:56.750Z,3.70
2019-01-25T19:59:24.375Z,3.70
2019-01-25T20:02:00.890Z,3.70
2019-01-25T20:04:58.390Z,3.70
2019-01-25T20:07:26.183Z,3.70
2019-01-25T20:09:53.852Z,3.80
2019-01-25T20:12:21.548Z,3.80
2019-01-25T20:14:49.235Z,3.80
2019-01-25T20:17:17.143Z,3.80
2019-01-25T20:19:44.712Z,3.80
2019-01-25T20:22:17.890Z,3.80
2019-01-25T20:24:56.716Z,3.80
2019-01-25T20:27:27.547Z,3.90
2019-01-25T20:29:55.237Z,3.90
2019-01-25T20:32:26.963Z,3.90
2019-01-25T20:34:54.538Z,4.00
2019-01-25T20:37:22.219Z,3.90
2019-01-25T20:40:05.980Z,4.00
2019-01-25T20:42:36.378Z,4.00
2019-01-25T20:45:05.912Z,4.00
2019-01-25T20:47:33.555Z,4.00
2019-01-25T20:50:01.363Z,4.00
2019-01-25T20:52:29.013Z,4.10
2019-01-25T20:54:56.650Z,4.10
2019-01-25T20:57:24.291Z,4.10
2019-01-25T20:59:51.907Z,4.10
2019-01-25T21:02:25.137Z,4.10
2019-01-25T21:04:52.835Z,4.10
2019-01-25T21:07:28.249Z,4.20
2019-01-25T21:09:55.857Z,4.20
2019-01-25T21:12:23.426Z,4.20
2019-01-25T21:14:51.179Z,4.20
2019-01-25T21:17:18.939Z,4.30
2019-01-25T21:19:46.513Z,4.30
2019-01-25T21:22:14.174Z,4.30
2019-01-25T21:24:41.824Z,4.30
2019-01-25T21:27:09.522Z,4.30
2019-01-25T21:29:37.231Z,4.30
2019-01-25T21:32:04.947Z,4.40
2019-01-25T21:34:32.577Z,4.40
2019-01-25T21:37:00.322Z,4.40
2019-01-25T21:39:27.991Z,4.40
2019-01-25T21:41:59.812Z,4.40
2019-01-25T21:44:27.593Z,4.50
2019-01-25T21:46:57.899Z,4.50
2019-01-25T21:49:25.623Z,4.50
2019-01-25T21:51:53.266Z,4.60
2019-01-25T21:54:22.358Z,4.60
2019-01-25T21:56:50.082Z,4.60
2019-01-25T21:59:17.828Z,4.60
2019-01-25T22:01:45.498Z,4.60
2019-01-25T22:04:13.167Z,4.60
2019-01-25T22:06:41.287Z,4.70
2019-01-25T22:09:09.364Z,4.70
2019-01-25T22:11:37.144Z,4.70
2019-01-25T22:14:05.082Z,4.70
2019-01-25T22:16:35.952Z,4.70
2019-01-25T22:19:03.676Z,4.80
2019-01-25T22:21:37.633Z,4.80
2019-01-25T22:24:05.224Z,4.80
2019-01-25T22:26:32.972Z,4.80
2019-01-25T22:29:01.073Z,4.80
2019-01-25T22:31:33.498Z,4.80
2019-01-25T22:34:01.201Z,4.80
2019-01-25T22:36:28.859Z,4.90
2019-01-25T22:38:56.502Z,4.90
2019-01-25T22:41:24.141Z,4.90
2019-01-25T22:43:52.355Z,4.90
2019-01-25T22:46:20.049Z,4.90
2019-01-25T22:48:47.740Z,4.90
2019-01-25T22:51:15.387Z,4.90
2019-01-25T22:53:43.054Z,4.90
2019-01-25T22:56:10.744Z,4.90
2019-01-25T22:58:38.375Z,4.90
2019-01-25T23:01:25.609Z,4.90
2019-01-25T23:04:27.855Z,4.90
2019-01-25T23:07:06.152Z,4.80
2019-01-25T23:09:36.836Z,4.90
2019-01-25T23:12:04.907Z,5.00
2019-01-25T23:14:32.542Z,5.00
2019-01-25T23:17:08.465Z,5.00
2019-01-25T23:19:36.071Z,5.00
2019-01-25T23:22:04.319Z,5.00
2019-01-25T23:24:31.881Z,5.00
2019-01-25T23:26:59.457Z,5.00
2019-01-25T23:29:27.158Z,5.10
2019-01-25T23:31:54.749Z,5.10
2019-01-25T23:34:22.338Z,5.10
2019-01-25T23:36:49.964Z,5.20
2019-01-25T23:39:17.652Z,5.20
2019-01-25T23:41:45.424Z,5.20
2019-01-25T23:44:13.005Z,5.20
2019-01-25T23:46:44.611Z,5.20
2019-01-25T23:49:12.308Z,5.20
2019-01-25T23:51:39.961Z,5.20
2019-01-25T23:54:07.609Z,5.30
2019-01-25T23:56:35.202Z,5.30
2019-01-25T23:59:02.790Z,5.30
